createdAt,value
2023-04-04T00:01:12.771Z,61123.00
2023-04-04T00:06:16.661Z,61100.19
2023-04-04T00:11:19.273Z,61119.47
2023-04-04T00:16:22.326Z,61082.84
2023-04-04T00:21:27.531Z,61041.53
2023-04-04T00:26:30.806Z,61112.91
2023-04-04T00:31:34.690Z,61057.00
2023-04-04T00:36:38.669Z,61109.28
2023-04-04T00:41:41.842Z,61074.66
2023-04-04T00:46:44.431Z,61072.84
2023-04-04T00:51:48.305Z,61069.06
2023-04-04T00:56:55.078Z,61061.41
2023-04-04T01:01:58.386Z,61033.09
2023-04-04T01:07:04.369Z,61063.47
2023-04-04T01:12:07.628Z,61050.06
2023-04-04T01:17:10.282Z,61026.53
2023-04-04T01:22:15.884Z,61031.66
2023-04-04T01:27:19.801Z,61024.34
2023-04-04T01:32:30.182Z,61046.31
2023-04-04T01:37:38.048Z,61047.47
2023-04-04T01:42:45.262Z,61028.53
2023-04-04T01:47:47.933Z,61029.88
2023-04-04T01:52:51.020Z,61036.41
2023-04-04T01:57:55.029Z,60985.59
2023-04-04T02:02:57.606Z,61023.13
2023-04-04T02:08:00.517Z,61007.28
2023-04-04T02:13:04.481Z,61014.50
2023-04-04T02:18:07.205Z,60993.22
2023-04-04T02:23:09.769Z,61016.28
2023-04-04T02:28:13.645Z,60997.00
2023-04-04T02:33:17.313Z,60985.28
2023-04-04T02:38:19.825Z,60969.72
2023-04-04T02:43:23.751Z,60977.94
2023-04-04T02:48:27.431Z,60953.28
2023-04-04T02:53:29.895Z,60993.44
2023-04-04T02:58:34.023Z,60938.69
2023-04-04T03:03:36.745Z,60973.38
2023-04-04T03:08:39.490Z,60964.06
2023-04-04T03:13:43.825Z,60953.69
2023-04-04T03:18:46.920Z,60954.41
2023-04-04T03:23:49.466Z,60928.84
2023-04-04T03:28:53.376Z,60945.16
2023-04-04T03:33:56.013Z,60901.91
2023-04-04T03:38:58.561Z,60871.50
2023-04-04T03:44:04.640Z,60934.47
2023-04-04T03:49:07.222Z,60881.47
2023-04-04T03:54:09.774Z,60896.97
2023-04-04T03:59:14.101Z,60896.72
2023-04-04T04:04:16.775Z,60851.19
2023-04-04T04:09:19.340Z,60869.81
2023-04-04T04:14:23.264Z,60842.44
2023-04-04T04:19:25.843Z,60810.22
2023-04-04T04:24:28.438Z,60855.28
2023-04-04T04:29:32.396Z,60867.56
2023-04-04T04:34:34.981Z,60817.97
2023-04-04T04:39:37.599Z,60832.63
2023-04-04T04:44:41.487Z,60831.06
2023-04-04T04:49:46.574Z,60831.22
2023-04-04T04:54:50.923Z,60801.72
2023-04-04T04:59:54.795Z,60830.78
2023-04-04T05:04:57.616Z,60839.47
2023-04-04T05:10:00.193Z,60861.94
2023-04-04T05:15:04.394Z,60830.75
2023-04-04T05:20:08.642Z,60856.66
2023-04-04T05:25:11.212Z,60813.88
2023-04-04T05:30:15.853Z,60876.13
2023-04-04T05:35:18.502Z,60926.38
2023-04-04T05:40:21.357Z,60920.53
2023-04-04T05:45:25.862Z,60898.41
2023-04-04T05:50:28.485Z,60962.13
2023-04-04T05:55:31.517Z,60979.81
2023-04-04T06:00:35.862Z,61005.50
2023-04-04T06:05:38.477Z,61007.78
2023-04-04T06:10:41.715Z,61020.25
2023-04-04T06:15:45.976Z,61063.78
2023-04-04T06:20:48.555Z,61110.09
2023-04-04T06:25:51.509Z,61157.16
2023-04-04T06:30:56.203Z,61161.00
2023-04-04T06:35:58.789Z,61368.81
2023-04-04T06:41:01.371Z,61533.88
2023-04-04T06:46:06.637Z,61644.91
2023-04-04T06:51:11.245Z,61686.94
2023-04-04T06:56:13.909Z,61706.59
2023-04-04T07:01:17.850Z,61643.81
2023-04-04T07:06:22.995Z,61681.75
2023-04-04T07:11:27.211Z,61747.31
2023-04-04T07:16:31.642Z,61718.28
2023-04-04T07:21:34.787Z,61851.16
2023-04-04T07:26:37.377Z,61866.09
2023-04-04T07:31:41.263Z,61919.16
2023-04-04T07:36:43.969Z,61943.13
2023-04-04T07:41:46.704Z,62041.22
2023-04-04T07:47:02.426Z,62165.06
2023-04-04T07:52:11.932Z,62210.34
2023-04-04T07:57:14.478Z,62260.16
2023-04-04T08:02:18.418Z,62249.03
2023-04-04T08:07:21.070Z,62235.44
2023-04-04T08:12:24.045Z,62330.41
2023-04-04T08:17:28.206Z,62274.97
2023-04-04T08:22:31.043Z,62256.38
2023-04-04T08:27:34.018Z,62368.13
2023-04-04T08:32:38.956Z,62385.19
2023-04-04T08:37:45.743Z,62430.50
2023-04-04T08:42:51.634Z,62455.97
2023-04-04T08:47:59.034Z,62574.69
2023-04-04T08:53:04.734Z,62500.88
2023-04-04T08:58:07.394Z,62444.16
2023-04-04T09:03:21.718Z,62548.22
2023-04-04T09:08:24.966Z,62547.00
2023-04-04T09:13:27.579Z,62486.94
2023-04-04T09:18:31.957Z,62549.06
2023-04-04T09:23:34.579Z,62514.06
2023-04-04T09:28:37.114Z,62697.84
2023-04-04T09:33:41.504Z,62691.69
2023-04-04T09:38:44.967Z,62561.28
2023-04-04T09:43:48.436Z,65211.38
2023-04-04T09:48:53.085Z,62625.66
2023-04-04T09:53:55.798Z,62732.22
2023-04-04T09:59:03.807Z,62640.59
2023-04-04T10:04:10.061Z,62535.72
2023-04-04T10:09:13.448Z,62596.06
2023-04-04T10:14:16.600Z,62481.09
2023-04-04T10:19:20.695Z,62554.81
2023-04-04T10:24:23.363Z,62582.78
2023-04-04T10:29:26.359Z,62565.09
2023-04-04T10:34:39.432Z,62492.31
2023-04-04T10:39:47.401Z,62444.28
2023-04-04T10:44:50.156Z,62483.34
2023-04-04T10:49:54.065Z,62453.47
2023-04-04T10:54:59.828Z,62477.94
2023-04-04T11:00:06.564Z,62503.50
2023-04-04T11:05:16.266Z,62412.28
2023-04-04T11:10:24.041Z,62433.53
2023-04-04T11:15:27.431Z,62390.56
2023-04-04T11:20:39.696Z,62433.91
2023-04-04T11:25:50.736Z,62446.72
2023-04-04T11:31:25.175Z,62564.78
2023-04-04T11:36:56.065Z,62554.59
2023-04-04T11:42:04.542Z,62449.53
2023-04-04T11:47:12.646Z,62430.69
2023-04-04T11:52:17.959Z,62483.94
2023-04-04T11:57:22.430Z,62414.06
2023-04-04T12:02:29.706Z,62431.38
2023-04-04T12:07:35.296Z,62401.84
2023-04-04T12:12:39.036Z,62414.53
2023-04-04T12:17:43.375Z,62475.00
2023-04-04T12:22:49.775Z,62419.44
2023-04-04T12:27:53.689Z,62494.97
2023-04-04T12:32:56.629Z,62451.41
2023-04-04T12:38:02.634Z,62405.09
2023-04-04T12:43:07.252Z,62524.88
2023-04-04T12:48:14.253Z,62437.03
2023-04-04T12:53:29.182Z,62482.91
2023-04-04T12:58:34.292Z,62481.72
2023-04-04T13:03:39.996Z,62483.22
2023-04-04T13:08:54.185Z,62508.00
2023-04-04T13:14:04.107Z,62442.22
2023-04-04T13:19:07.166Z,62494.97
2023-04-04T13:24:12.090Z,62440.00
2023-04-04T13:29:15.751Z,62446.41
2023-04-04T13:34:18.341Z,62506.69
2023-04-04T13:39:22.291Z,62568.38
2023-04-04T13:44:26.148Z,62529.53
2023-04-04T13:49:30.060Z,62461.09
2023-04-04T13:54:33.991Z,62491.09
2023-04-04T13:59:36.645Z,62449.72
2023-04-04T14:04:39.299Z,62563.16
2023-04-04T14:09:43.405Z,62565.56
2023-04-04T14:14:46.041Z,62572.47
2023-04-04T14:19:48.670Z,62618.16
2023-04-04T14:24:52.569Z,62642.97
2023-04-04T14:29:55.158Z,62615.06
2023-04-04T14:34:57.771Z,62583.75
2023-04-04T14:40:02.105Z,62590.63
2023-04-04T14:45:07.793Z,62503.69
2023-04-04T14:50:11.250Z,62447.97
2023-04-04T14:55:15.630Z,62351.94
2023-04-04T15:00:20.638Z,62357.91
2023-04-04T15:05:23.242Z,62365.97
2023-04-04T15:10:27.159Z,62413.09
2023-04-04T15:15:29.994Z,62430.66
2023-04-04T15:20:32.607Z,62290.63
2023-04-04T15:25:36.967Z,62228.50
2023-04-04T15:30:40.073Z,62202.41
2023-04-04T15:35:42.665Z,62235.75
2023-04-04T15:40:46.634Z,62292.78
2023-04-04T15:45:49.264Z,62299.09
2023-04-04T15:50:51.990Z,62368.50
2023-04-04T15:55:56.020Z,62373.59
2023-04-04T16:00:58.731Z,62262.56
2023-04-04T16:06:01.662Z,62242.38
2023-04-04T16:11:05.837Z,62254.84
2023-04-04T16:16:08.478Z,62255.22
2023-04-04T16:21:11.095Z,62179.91
2023-04-04T16:26:15.180Z,62130.09
2023-04-04T16:31:18.100Z,62263.59
2023-04-04T16:36:21.134Z,62282.44
2023-04-04T16:41:25.159Z,62154.25
2023-04-04T16:46:28.246Z,62141.63
2023-04-04T16:51:32.073Z,62041.38
2023-04-04T16:56:36.316Z,61994.28
2023-04-04T17:01:39.112Z,61952.03
2023-04-04T17:06:41.704Z,61927.25
2023-04-04T17:11:47.036Z,61891.84
2023-04-04T17:16:50.185Z,61852.91
2023-04-04T17:21:52.831Z,61859.78
2023-04-04T17:26:57.916Z,61827.56
2023-04-04T17:32:00.686Z,61787.69
2023-04-04T17:37:03.359Z,61803.00
2023-04-04T17:42:07.412Z,61778.75
2023-04-04T17:47:10.056Z,61787.22
2023-04-04T17:52:14.225Z,61783.34
2023-04-04T17:57:18.214Z,61730.13
2023-04-04T18:02:21.160Z,61745.31
2023-04-04T18:07:23.795Z,61715.47
2023-04-04T18:12:30.222Z,61679.94
2023-04-04T18:17:33.409Z,61684.84
2023-04-04T18:22:36.473Z,61675.63
2023-04-04T18:27:40.429Z,61669.50
2023-04-04T18:32:43.099Z,61649.91
2023-04-04T18:37:45.713Z,61640.78
2023-04-04T18:42:50.068Z,61655.13
2023-04-04T18:47:52.673Z,61605.19
2023-04-04T18:52:56.882Z,61610.59
2023-04-04T18:58:00.812Z,61624.22
2023-04-04T19:03:03.459Z,61598.72
2023-04-04T19:08:08.703Z,61576.38
2023-04-04T19:13:12.601Z,61585.94
2023-04-04T19:18:15.573Z,61556.66
2023-04-04T19:23:18.206Z,61584.91
2023-04-04T19:28:22.163Z,61581.59
2023-04-04T19:33:27.334Z,61561.13
2023-04-04T19:38:32.574Z,61537.50
2023-04-04T19:43:37.175Z,61535.66
2023-04-04T19:48:45.046Z,61515.28
2023-04-04T19:53:50.356Z,61485.09
2023-04-04T19:58:56.570Z,61498.34
2023-04-04T20:04:07.006Z,61508.06
2023-04-04T20:09:14.081Z,61477.63
2023-04-04T20:14:21.577Z,61457.34
2023-04-04T20:19:28.556Z,61441.91
2023-04-04T20:24:31.534Z,61427.00
2023-04-04T20:29:37.464Z,61418.13
2023-04-04T20:34:45.376Z,61419.50
2023-04-04T20:39:49.798Z,61401.16
2023-04-04T20:44:54.328Z,61414.34
2023-04-04T20:49:56.973Z,61374.06
2023-04-04T20:54:59.568Z,61425.31
2023-04-04T21:00:27.701Z,61349.22
2023-04-04T21:05:31.482Z,61322.53
2023-04-04T21:10:49.252Z,61312.63
2023-04-04T21:15:56.176Z,61312.38
2023-04-04T21:21:12.711Z,61247.09
2023-04-04T21:26:34.988Z,61258.19
2023-04-04T21:31:40.946Z,61256.47
2023-04-04T21:36:44.625Z,61224.63
2023-04-04T21:41:47.786Z,61232.56
2023-04-04T21:46:52.249Z,61207.19
2023-04-04T21:51:54.817Z,61233.03
2023-04-04T21:56:57.480Z,61217.28
2023-04-04T22:02:01.459Z,61149.06
2023-04-04T22:07:04.049Z,61174.56
2023-04-04T22:12:14.697Z,61170.88
2023-04-04T22:17:23.148Z,61159.41
2023-04-04T22:22:29.344Z,61172.91
2023-04-04T22:27:32.616Z,61128.97
2023-04-04T22:32:39.128Z,61123.91
2023-04-04T22:37:45.937Z,61103.06
2023-04-04T22:42:48.573Z,61112.53
2023-04-04T22:47:52.640Z,61100.13
2023-04-04T22:52:55.436Z,61100.03
2023-04-04T22:57:58.170Z,61097.56
2023-04-04T23:03:02.320Z,61085.97
2023-04-04T23:08:06.362Z,61085.44
2023-04-04T23:13:08.966Z,61090.84
2023-04-04T23:18:13.451Z,61040.47
2023-04-04T23:23:16.078Z,61093.34
2023-04-04T23:28:18.806Z,61068.69
2023-04-04T23:33:22.752Z,61106.59
2023-04-04T23:38:25.366Z,61064.50
2023-04-04T23:43:28.381Z,61089.94
2023-04-04T23:48:32.539Z,61101.69
2023-04-04T23:53:35.240Z,61071.25
2023-04-04T23:58:38.214Z,61078.03
